Time;durP1;ratioP1;P1;durP2;ratioP2;P2;SDS_P1;SDS_P2;PMS_P1;PMS_P2;Temp;Humidity;BMP_temperature;BMP_pressure;BME280_temperature;BME280_humidity;BME280_pressure;Samples;Min_cycle;Max_cycle;Signal;HPM_P1;HPM_P2
2021/01/04 00:00:50;;;;;;;17.53;11.40;;;3.90;99.90;;;-146.47;100.00;66290.13;4865898;29;20212;-81
2021/01/04 00:04:09;;;;;;;21.63;12.37;;;3.90;99.90;;;-146.47;100.00;66290.13;4866498;29;20217;-82
2021/01/04 00:07:33;;;;;;;23.70;13.23;;;3.90;99.90;;;-146.47;100.00;66290.13;4861604;29;20298;-82
2021/01/04 00:10:34;;;;;;;20.60;12.47;;;3.90;99.90;;;-146.47;100.00;66290.13;4860101;29;20213;-82
2021/01/04 00:13:30;;;;;;;19.20;12.30;;;3.90;99.90;;;-146.47;100.00;66290.13;4867032;29;20267;-80
2021/01/04 00:16:32;;;;;;;20.57;13.00;;;3.90;99.90;;;-146.47;100.00;66290.13;4858238;29;20268;-81
2021/01/04 00:19:27;;;;;;;20.43;13.33;;;3.90;99.90;;;-146.47;100.00;66290.13;4872854;29;20236;-81
2021/01/04 00:22:25;;;;;;;22.17;12.67;;;3.80;99.90;;;-146.47;100.00;66290.13;4858755;29;20198;-82
2021/01/04 00:25:24;;;;;;;22.10;13.90;;;3.80;99.90;;;-146.47;100.00;66290.13;4864880;29;20237;-81
2021/01/04 00:28:12;;;;;;;20.67;12.73;;;3.90;99.90;;;-146.47;100.00;66290.13;4864739;29;20241;-82
2021/01/04 00:31:06;;;;;;;20.37;12.50;;;3.90;99.90;;;-146.47;100.00;66290.13;4860799;29;20268;-81
2021/01/04 00:33:57;;;;;;;19.70;12.33;;;3.90;99.90;;;-146.47;100.00;66290.13;4855422;29;20317;-82
2021/01/04 00:37:40;;;;;;;21.60;12.80;;;3.80;99.90;;;-146.47;100.00;66290.13;4865528;29;20707;-81
2021/01/04 00:40:41;;;;;;;21.97;13.33;;;3.90;99.90;;;-146.47;100.00;66290.13;4839064;29;20357;-82
2021/01/04 00:43:41;;;;;;;21.70;14.40;;;3.80;99.90;;;-146.47;100.00;66290.13;4865856;29;20221;-82
2021/01/04 00:46:43;;;;;;;22.07;13.03;;;3.80;99.90;;;-146.47;100.00;66290.13;4864461;29;20210;-82
2021/01/04 00:49:32;;;;;;;21.63;13.40;;;3.80;99.90;;;-146.47;100.00;66290.13;4854775;29;20217;-82
2021/01/04 00:52:34;;;;;;;24.30;14.30;;;3.80;99.90;;;-146.47;100.00;66290.13;4864283;29;20236;-81
2021/01/04 00:55:58;;;;;;;24.10;14.63;;;3.80;99.90;;;-146.47;100.00;66290.13;4865748;29;20280;-82
2021/01/04 00:59:05;;;;;;;22.23;14.30;;;3.80;99.90;;;-146.47;100.00;66290.13;4859108;29;20266;-82
2021/01/04 01:02:11;;;;;;;21.30;13.27;;;3.80;99.90;;;-146.47;100.00;66290.13;4859033;29;20201;-82
2021/01/04 01:05:07;;;;;;;23.77;14.50;;;3.80;99.90;;;-146.47;100.00;66290.13;4866027;29;20250;-83
2021/01/04 01:08:08;;;;;;;23.67;13.87;;;3.80;99.90;;;-146.47;100.00;66290.13;4864757;29;20659;-82
2021/01/04 01:11:00;;;;;;;23.10;14.03;;;3.90;99.90;;;-146.47;100.00;66290.13;4865083;29;20299;-82
2021/01/04 01:13:58;;;;;;;23.30;15.83;;;3.90;99.90;;;-146.47;100.00;66290.13;4865550;29;20238;-81
2021/01/04 01:17:41;;;;;;;23.33;13.93;;;3.90;99.90;;;-146.47;100.00;66290.13;4854327;29;20342;-82
2021/01/04 01:20:29;;;;;;;19.80;14.33;;;3.90;99.90;;;-146.47;100.00;66290.13;4873535;29;20639;-83
2021/01/04 01:23:15;;;;;;;20.30;14.47;;;3.90;99.90;;;-146.47;100.00;66290.13;4864564;29;20270;-81
2021/01/04 01:26:50;;;;;;;19.27;13.17;;;3.90;99.90;;;-146.47;100.00;66290.13;4859176;29;20285;-81
2021/01/04 01:30:15;;;;;;;21.83;14.00;;;3.90;99.90;;;-146.47;100.00;66290.13;4853851;29;20209;-82
2021/01/04 01:33:55;;;;;;;20.57;14.20;;;3.90;99.90;;;-146.47;100.00;66290.13;4858402;29;20254;-82
2021/01/04 01:37:02;;;;;;;18.80;12.90;;;3.90;99.90;;;-146.47;100.00;66290.13;4857541;29;20268;-82
2021/01/04 01:40:15;;;;;;;17.50;12.70;;;3.90;99.90;;;-146.47;100.00;66290.13;4866279;29;20257;-82
2021/01/04 01:43:35;;;;;;;18.60;11.23;;;3.90;99.90;;;-146.47;100.00;66290.13;4871269;29;20205;-82
2021/01/04 01:46:35;;;;;;;20.80;12.30;;;3.90;99.90;;;-146.47;100.00;66290.13;4855535;29;20307;-81
2021/01/04 01:49:46;;;;;;;18.87;13.00;;;3.80;99.90;;;-146.47;100.00;66290.13;4870562;29;20209;-82
2021/01/04 01:52:52;;;;;;;19.93;13.43;;;3.80;99.90;;;-146.47;100.00;66290.13;4866033;29;20221;-81
2021/01/04 01:56:07;;;;;;;20.07;13.47;;;3.80;99.90;;;-146.47;100.00;66290.13;4865044;29;20788;-81
2021/01/04 01:59:20;;;;;;;21.03;13.90;;;3.80;99.90;;;-146.47;100.00;66290.13;4860852;29;20317;-81
2021/01/04 02:02:17;;;;;;;21.00;13.07;;;3.80;99.90;;;-146.47;100.00;66290.13;4865736;29;20295;-83
2021/01/04 02:05:14;;;;;;;21.10;13.13;;;3.80;99.90;;;-146.47;100.00;66290.13;4855384;29;20212;-82
2021/01/04 02:08:05;;;;;;;16.13;11.93;;;3.80;99.90;;;-146.47;100.00;66290.13;4860032;29;20229;-83
2021/01/04 02:10:57;;;;;;;15.77;11.23;;;3.80;99.90;;;-146.47;100.00;66290.13;4864586;29;20626;-82
2021/01/04 02:14:00;;;;;;;15.83;11.10;;;3.80;99.90;;;-146.47;100.00;66290.13;4864594;29;20259;-83
2021/01/04 02:17:10;;;;;;;15.87;10.17;;;3.80;99.90;;;-146.47;100.00;66290.13;4861713;29;20231;-81
2021/01/04 02:20:22;;;;;;;14.67;10.07;;;3.80;99.90;;;-146.47;100.00;66290.13;4852547;29;20600;-82
2021/01/04 02:23:23;;;;;;;13.80;10.27;;;3.80;99.90;;;-146.47;100.00;66290.13;4863020;29;20205;-82
2021/01/04 02:26:18;;;;;;;13.73;9.70;;;3.70;99.90;;;-146.47;100.00;66290.13;4864603;29;20323;-82
2021/01/04 02:29:06;;;;;;;12.37;8.60;;;3.70;99.90;;;-146.47;100.00;66290.13;4863753;29;20236;-82
2021/01/04 02:31:58;;;;;;;13.40;9.63;;;3.70;99.90;;;-146.47;100.00;66290.13;4864657;29;20325;-81
2021/01/04 02:34:49;;;;;;;14.07;11.10;;;3.70;99.90;;;-146.47;100.00;66290.13;4864646;29;20205;-83
2021/01/04 02:37:34;;;;;;;15.03;11.37;;;3.70;99.90;;;-146.47;100.00;66290.13;4864740;29;20297;-81
2021/01/04 02:40:20;;;;;;;15.03;10.80;;;3.70;99.90;;;-146.47;100.00;66290.13;4851743;29;21027;-83
2021/01/04 02:43:06;;;;;;;12.77;8.87;;;3.70;99.90;;;-146.47;100.00;66290.13;4863868;29;20580;-81
2021/01/04 02:45:55;;;;;;;12.63;9.53;;;3.70;99.90;;;-146.47;100.00;66290.13;4854485;29;20745;-82
2021/01/04 02:49:06;;;;;;;12.93;9.40;;;3.70;99.90;;;-146.47;100.00;66290.13;4862572;29;20232;-81
2021/01/04 02:52:07;;;;;;;13.03;9.70;;;3.70;99.90;;;-146.47;100.00;66290.13;4860699;29;20216;-81
2021/01/04 02:55:01;;;;;;;13.27;9.73;;;3.70;99.90;;;-146.47;100.00;66290.13;4857944;29;20650;-82
2021/01/04 02:57:58;;;;;;;13.37;9.97;;;3.60;99.90;;;-146.47;100.00;66290.13;4872651;29;20247;-81
2021/01/04 03:00:55;;;;;;;15.83;11.37;;;3.60;99.90;;;-146.47;100.00;66290.13;4865034;29;20305;-82
2021/01/04 03:03:43;;;;;;;15.23;10.93;;;3.60;99.90;;;-146.47;100.00;66290.13;4863548;29;20628;-82
2021/01/04 03:06:41;;;;;;;16.50;11.53;;;3.70;99.90;;;-146.47;100.00;66290.13;4855234;29;20238;-82
2021/01/04 03:09:27;;;;;;;21.47;13.20;;;3.60;99.90;;;-146.47;100.00;66290.13;4861729;29;20637;-82
2021/01/04 03:12:17;;;;;;;15.13;11.90;;;3.50;99.90;;;-146.47;100.00;66290.13;4864421;29;20217;-81
2021/01/04 03:15:27;;;;;;;15.87;12.43;;;3.60;99.90;;;-146.47;100.00;66290.13;4855820;29;20642;-81
2021/01/04 03:18:23;;;;;;;16.23;11.00;;;3.60;99.90;;;-146.47;100.00;66290.13;4862849;29;20229;-81
2021/01/04 03:21:08;;;;;;;16.43;10.77;;;3.60;99.90;;;-146.47;100.00;66290.13;4863643;29;20662;-82
2021/01/04 03:23:56;;;;;;;17.10;11.90;;;3.50;99.90;;;-146.47;100.00;66290.13;4871736;29;20266;-81
2021/01/04 03:26:49;;;;;;;16.30;11.73;;;3.50;99.90;;;-146.47;100.00;66290.13;4864917;29;20281;-81
2021/01/04 03:29:34;;;;;;;16.40;9.87;;;3.50;99.90;;;-146.47;100.00;66290.13;4867847;29;20716;-81
2021/01/04 03:32:19;;;;;;;14.97;10.27;;;3.50;99.90;;;-146.47;100.00;66290.13;4861664;29;20217;-81
2021/01/04 03:35:08;;;;;;;15.97;11.77;;;3.50;99.90;;;-146.47;100.00;66290.13;4867245;29;20225;-83
2021/01/04 03:37:52;;;;;;;14.73;10.10;;;3.50;99.90;;;-146.47;100.00;66290.13;4885998;23;20225;-77
2021/01/04 03:40:38;;;;;;;12.93;9.33;;;3.50;99.90;;;-146.47;100.00;66290.13;4888524;29;20694;-77
2021/01/04 03:43:25;;;;;;;16.50;10.13;;;3.50;99.90;;;-146.47;100.00;66290.13;4892201;29;20702;-77
2021/01/04 03:46:11;;;;;;;12.70;8.60;;;3.50;99.90;;;-146.47;100.00;66290.13;4892294;29;20205;-77
2021/01/04 03:48:56;;;;;;;12.80;9.13;;;3.50;99.90;;;-146.47;100.00;66290.13;4896760;29;20235;-76
2021/01/04 03:51:49;;;;;;;13.77;9.30;;;3.50;99.90;;;-146.47;100.00;66290.13;4901047;29;20212;-77
2021/01/04 03:54:34;;;;;;;15.13;10.87;;;3.60;99.90;;;-146.47;100.00;66290.13;4899687;29;20207;-77
2021/01/04 03:57:20;;;;;;;15.00;10.77;;;3.50;99.90;;;-146.47;100.00;66290.13;4890484;29;20216;-77
2021/01/04 04:00:08;;;;;;;16.53;10.47;;;3.50;99.90;;;-146.47;100.00;66290.13;4899612;29;20291;-78
2021/01/04 04:02:54;;;;;;;14.47;9.97;;;3.50;99.90;;;-146.47;100.00;66290.13;4894545;29;20261;-77
2021/01/04 04:05:39;;;;;;;15.43;10.70;;;3.50;99.90;;;-146.47;100.00;66290.13;4898067;29;20260;-77
2021/01/04 04:08:27;;;;;;;14.47;9.23;;;3.50;99.90;;;-146.47;100.00;66290.13;4893063;29;20280;-77
2021/01/04 04:11:15;;;;;;;14.70;10.23;;;3.50;99.90;;;-146.47;100.00;66290.13;4898187;29;20649;-78
2021/01/04 04:14:00;;;;;;;14.47;9.53;;;3.50;99.90;;;-146.47;100.00;66290.13;4896990;29;20688;-77
2021/01/04 04:16:48;;;;;;;13.30;9.27;;;3.50;99.90;;;-146.47;100.00;66290.13;4901064;29;20237;-77
2021/01/04 04:19:34;;;;;;;14.07;10.90;;;3.50;99.90;;;-146.47;100.00;66290.13;4896694;29;20227;-77
2021/01/04 04:22:19;;;;;;;14.83;9.97;;;3.50;99.90;;;-146.47;100.00;66290.13;4895730;29;20673;-77
2021/01/04 04:25:09;;;;;;;16.17;10.17;;;3.50;99.90;;;-146.47;100.00;66290.13;4897776;29;20216;-78
2021/01/04 04:27:56;;;;;;;15.53;10.53;;;3.50;99.90;;;-146.47;100.00;66290.13;4898934;29;20617;-77
2021/01/04 04:30:41;;;;;;;13.20;9.40;;;3.50;99.90;;;-146.47;100.00;66290.13;4894112;29;20204;-78
2021/01/04 04:33:26;;;;;;;16.77;11.17;;;3.50;99.90;;;-146.47;100.00;66290.13;4901608;29;20216;-78
2021/01/04 04:36:18;;;;;;;14.83;10.20;;;3.50;99.90;;;-146.47;100.00;66290.13;4899359;29;20623;-78
2021/01/04 04:39:04;;;;;;;15.33;9.83;;;3.50;99.90;;;-146.47;100.00;66290.13;4891072;29;20288;-77
2021/01/04 04:41:53;;;;;;;14.20;10.10;;;3.50;99.90;;;-146.47;100.00;66290.13;4896323;29;20357;-78
2021/01/04 04:44:51;;;;;;;14.40;9.60;;;3.50;99.90;;;-146.47;100.00;66290.13;4901985;29;20273;-77
2021/01/04 04:48:14;;;;;;;13.33;8.87;;;3.50;99.90;;;-146.47;100.00;66290.13;4889439;29;20220;-77
2021/01/04 04:51:49;;;;;;;14.77;10.20;;;3.50;99.90;;;-146.47;100.00;66290.13;4884434;29;20265;-76
2021/01/04 04:55:03;;;;;;;14.23;10.20;;;3.50;99.90;;;-146.47;100.00;66290.13;4887359;29;20244;-77
2021/01/04 04:58:22;;;;;;;15.50;10.70;;;3.50;99.90;;;-146.47;100.00;66290.13;4890891;29;20208;-77
2021/01/04 05:01:30;;;;;;;15.10;10.50;;;3.50;99.90;;;-146.47;100.00;66290.13;4901504;29;20208;-78
2021/01/04 05:04:42;;;;;;;13.30;9.60;;;3.50;99.90;;;-146.47;100.00;66290.13;4900419;29;20651;-77
2021/01/04 05:07:44;;;;;;;16.27;10.70;;;3.50;99.90;;;-146.47;100.00;66290.13;4898747;29;20620;-77
2021/01/04 05:10:34;;;;;;;13.63;9.57;;;3.50;99.90;;;-146.47;100.00;66290.13;4899367;29;20579;-78
2021/01/04 05:13:27;;;;;;;12.73;8.93;;;3.50;99.90;;;-146.47;100.00;66290.13;4907840;29;20192;-77
2021/01/04 05:16:19;;;;;;;12.70;8.87;;;3.50;99.90;;;-146.47;100.00;66290.13;4895836;29;20204;-78
2021/01/04 05:19:42;;;;;;;12.47;9.50;;;3.50;99.90;;;-146.47;100.00;66290.13;4898644;29;20705;-77
2021/01/04 05:23:15;;;;;;;13.07;8.90;;;3.50;99.90;;;-146.47;100.00;66290.13;4898729;29;20702;-78
2021/01/04 05:26:59;;;;;;;12.80;9.07;;;3.50;99.90;;;-146.47;100.00;66290.13;4897018;29;20208;-78
2021/01/04 05:30:22;;;;;;;14.83;10.27;;;3.50;99.90;;;-146.47;100.00;66290.13;4833273;29;20318;-78
2021/01/04 05:33:58;;;;;;;13.37;9.33;;;3.50;99.90;;;-146.47;100.00;66290.13;4839045;29;20295;-77
2021/01/04 05:37:17;;;;;;;12.73;8.77;;;3.50;99.90;;;-146.47;100.00;66290.13;4894950;29;20212;-77
2021/01/04 05:40:17;;;;;;;14.60;9.43;;;3.50;99.90;;;-146.47;100.00;66290.13;4900532;29;20228;-78
2021/01/04 05:43:13;;;;;;;13.60;9.20;;;3.50;99.90;;;-146.47;100.00;66290.13;4898195;29;20204;-78
2021/01/04 05:46:07;;;;;;;12.93;9.43;;;3.50;99.90;;;-146.47;100.00;66290.13;4899619;29;20241;-78
2021/01/04 05:49:12;;;;;;;14.47;9.07;;;3.50;99.90;;;-146.47;100.00;66290.13;4898180;29;20642;-77
2021/01/04 05:51:57;;;;;;;13.23;9.13;;;3.50;99.90;;;-146.47;100.00;66290.13;4902810;29;20256;-76
2021/01/04 05:54:43;;;;;;;14.17;9.47;;;3.50;99.90;;;-146.47;100.00;66290.13;4918379;29;20239;-78
2021/01/04 05:57:28;;;;;;;12.70;9.10;;;3.50;99.90;;;-146.47;100.00;66290.13;4904882;29;20252;-77
2021/01/04 06:00:25;;;;;;;14.87;10.53;;;3.50;99.90;;;-146.47;100.00;66290.13;4900683;29;20284;-78
2021/01/04 06:03:15;;;;;;;16.47;11.37;;;3.50;99.90;;;-146.47;100.00;66290.13;4899235;29;20292;-77
2021/01/04 06:06:21;;;;;;;15.70;10.33;;;3.60;99.90;;;-146.47;100.00;66290.13;4899377;29;20212;-77
2021/01/04 06:09:13;;;;;;;14.10;9.57;;;3.60;99.90;;;-146.47;100.00;66290.13;4896066;29;20272;-77
2021/01/04 06:12:02;;;;;;;15.57;10.53;;;3.50;99.90;;;-146.47;100.00;66290.13;4896101;29;20204;-77
2021/01/04 06:14:58;;;;;;;15.90;9.97;;;3.90;99.90;;;-146.47;100.00;66290.13;4886358;29;20261;-77
2021/01/04 06:17:46;;;;;;;17.10;11.80;;;3.60;99.90;;;-146.47;100.00;66290.13;4895294;29;20292;-77
2021/01/04 06:21:15;;;;;;;14.60;9.53;;;3.60;99.90;;;-146.47;100.00;66290.13;4895174;29;20295;-77
2021/01/04 06:24:03;;;;;;;12.80;8.20;;;3.60;99.90;;;-146.47;100.00;66290.13;4897380;29;20211;-77
2021/01/04 06:26:52;;;;;;;12.20;8.47;;;3.70;99.90;;;-146.47;100.00;66290.13;4888170;29;20710;-76
2021/01/04 06:29:43;;;;;;;11.80;7.97;;;3.70;99.90;;;-146.47;100.00;66290.13;4895834;29;20231;-76
2021/01/04 06:32:33;;;;;;;11.53;8.47;;;3.70;99.90;;;-146.47;100.00;66290.13;4896718;29;20612;-76
2021/01/04 06:35:25;;;;;;;13.83;8.30;;;3.70;99.90;;;-146.47;100.00;66290.13;4894952;29;20626;-76
2021/01/04 06:38:25;;;;;;;12.23;8.60;;;3.80;99.90;;;-146.47;100.00;66290.13;4892057;29;20244;-76
2021/01/04 06:41:14;;;;;;;11.90;8.37;;;3.70;99.90;;;-146.47;100.00;66290.13;4892034;29;20207;-76
2021/01/04 06:44:14;;;;;;;10.60;8.13;;;3.70;99.90;;;-146.47;100.00;66290.13;4887229;29;20228;-77
2021/01/04 06:47:44;;;;;;;12.33;8.57;;;3.60;99.90;;;-146.47;100.00;66290.13;4889161;29;20341;-76
2021/01/04 06:50:41;;;;;;;10.23;7.47;;;3.70;99.90;;;-146.47;100.00;66290.13;4886646;29;20272;-76
2021/01/04 06:54:24;;;;;;;12.40;8.40;;;3.70;99.90;;;-146.47;100.00;66290.13;4901014;29;20215;-75
2021/01/04 06:58:01;;;;;;;10.27;7.37;;;3.60;99.90;;;-146.47;100.00;66290.13;4837673;29;20202;-76
2021/01/04 07:01:28;;;;;;;10.97;7.83;;;3.60;99.90;;;-146.47;100.00;66290.13;4864534;29;20244;-75
2021/01/04 07:04:44;;;;;;;11.70;8.10;;;3.60;99.90;;;-146.47;100.00;66290.13;4914354;29;20196;-75
2021/01/04 07:08:02;;;;;;;12.27;8.67;;;3.60;99.90;;;-146.47;100.00;66290.13;4900706;29;20220;-77
2021/01/04 07:11:11;;;;;;;12.27;7.30;;;3.60;99.90;;;-146.47;100.00;66290.13;4888948;29;20208;-77
2021/01/04 07:14:23;;;;;;;12.83;7.97;;;3.60;99.90;;;-146.47;100.00;66290.13;4894909;29;20609;-77
2021/01/04 07:17:42;;;;;;;14.70;8.50;;;3.50;99.90;;;-146.47;100.00;66290.13;4893205;29;20219;-76
2021/01/04 07:20:45;;;;;;;12.67;8.60;;;3.60;99.90;;;-146.47;100.00;66290.13;4887011;29;20255;-77
2021/01/04 07:23:50;;;;;;;13.90;9.07;;;3.60;99.90;;;-146.47;100.00;66290.13;4886280;29;20792;-77
2021/01/04 07:27:03;;;;;;;11.10;7.73;;;3.60;99.90;;;-146.47;100.00;66290.13;4892007;29;20200;-77
2021/01/04 07:30:06;;;;;;;13.80;8.83;;;3.60;99.90;;;-146.47;100.00;66290.13;4888388;29;20264;-77
2021/01/04 07:33:02;;;;;;;13.40;8.83;;;3.60;99.90;;;-146.47;100.00;66290.13;4894251;29;20585;-77
2021/01/04 07:35:58;;;;;;;13.93;9.57;;;3.60;99.90;;;-146.47;100.00;66290.13;4889602;29;20634;-76
2021/01/04 07:38:56;;;;;;;14.47;9.50;;;3.60;99.90;;;-146.47;100.00;66290.13;4889158;29;20243;-77
2021/01/04 07:41:59;;;;;;;12.07;8.03;;;3.60;99.90;;;-146.47;100.00;66290.13;4895750;29;20739;-76
2021/01/04 07:45:19;;;;;;;13.27;8.30;;;3.70;99.90;;;-146.47;100.00;66290.13;4895982;29;20265;-76
2021/01/04 07:48:42;;;;;;;14.57;9.20;;;3.60;99.90;;;-146.47;100.00;66290.13;4890717;29;20232;-76
2021/01/04 07:51:49;;;;;;;13.30;8.57;;;3.60;99.90;;;-146.47;100.00;66290.13;4886344;29;20220;-77
2021/01/04 07:55:19;;;;;;;12.83;8.47;;;3.60;99.90;;;-146.47;100.00;66290.13;4903206;29;20212;-77
2021/01/04 07:58:54;;;;;;;12.43;7.90;;;3.70;99.90;;;-146.47;100.00;66290.13;4876851;29;20289;-77
2021/01/04 08:02:27;;;;;;;13.23;8.40;;;3.60;99.90;;;-146.47;100.00;66290.13;4891040;29;20216;-77
2021/01/04 08:05:47;;;;;;;12.83;8.70;;;3.70;99.90;;;-146.47;100.00;66290.13;4879096;29;20213;-76
2021/01/04 08:08:44;;;;;;;14.07;8.70;;;3.60;99.90;;;-146.47;100.00;66290.13;4893126;29;20236;-77
2021/01/04 08:12:16;;;;;;;13.13;8.77;;;3.70;99.90;;;-146.47;100.00;66290.13;4876458;29;20273;-77
2021/01/04 08:16:04;;;;;;;12.97;8.70;;;3.70;99.90;;;-146.47;100.00;66290.13;4885370;29;20208;-76
2021/01/04 08:18:56;;;;;;;15.13;8.93;;;3.70;99.90;;;-146.47;100.00;66290.13;4891235;29;20288;-77
2021/01/04 08:21:58;;;;;;;13.60;8.17;;;3.70;99.90;;;-146.47;100.00;66290.13;4895493;29;20208;-77
2021/01/04 08:24:46;;;;;;;13.30;9.07;;;3.70;99.90;;;-146.47;100.00;66290.13;4884334;29;20207;-77
2021/01/04 08:27:46;;;;;;;13.07;8.90;;;3.70;99.90;;;-146.47;100.00;66290.13;4893399;29;20223;-77
2021/01/04 08:30:39;;;;;;;18.10;8.70;;;3.70;99.90;;;-146.47;100.00;66290.13;4893203;29;20204;-77
2021/01/04 08:33:42;;;;;;;14.57;9.10;;;3.70;99.90;;;-146.47;100.00;66290.13;4896216;29;20212;-77
2021/01/04 08:36:32;;;;;;;16.23;10.70;;;3.70;99.90;;;-146.47;100.00;66290.13;4890395;29;20264;-77
2021/01/04 08:39:35;;;;;;;14.83;8.37;;;3.80;99.90;;;-146.47;100.00;66290.13;4888922;29;20665;-77
2021/01/04 08:42:32;;;;;;;15.43;9.93;;;3.80;99.90;;;-146.47;100.00;66290.13;4880652;29;20323;-77
2021/01/04 08:45:30;;;;;;;14.67;9.73;;;3.80;99.90;;;-146.47;100.00;66290.13;4892551;29;20216;-77
2021/01/04 08:48:22;;;;;;;16.07;8.50;;;3.80;99.90;;;-146.47;100.00;66290.13;4886366;29;20231;-77
2021/01/04 08:51:12;;;;;;;13.70;8.10;;;3.80;99.90;;;-146.47;100.00;66290.13;4891836;29;20211;-77
2021/01/04 08:54:03;;;;;;;15.43;9.23;;;3.80;99.90;;;-146.47;100.00;66290.13;4883265;29;20220;-77
2021/01/04 08:56:54;;;;;;;15.63;9.90;;;3.80;99.90;;;-146.47;100.00;66290.13;4907534;29;20251;-77
2021/01/04 08:59:54;;;;;;;16.90;9.33;;;3.90;99.90;;;-146.47;100.00;66290.13;4896145;29;20288;-78
2021/01/04 09:02:42;;;;;;;11.67;7.57;;;3.80;99.90;;;-146.47;100.00;66290.13;4890337;29;20204;-78
2021/01/04 09:05:38;;;;;;;13.87;9.00;;;3.90;99.90;;;-146.47;100.00;66290.13;4894249;29;20211;-78
2021/01/04 09:08:32;;;;;;;16.93;9.40;;;3.90;99.90;;;-146.47;100.00;66290.13;4894481;29;20377;-77
2021/01/04 09:11:20;;;;;;;14.33;9.57;;;4.00;99.90;;;-146.47;100.00;66290.13;4895077;29;20573;-77
2021/01/04 09:14:19;;;;;;;14.17;8.13;;;4.00;99.90;;;-146.47;100.00;66290.13;4898350;29;20280;-78
2021/01/04 09:17:19;;;;;;;14.90;9.23;;;4.00;99.90;;;-146.47;100.00;66290.13;4896790;29;20216;-77
2021/01/04 09:20:24;;;;;;;14.00;9.83;;;4.10;99.90;;;-146.47;100.00;66290.13;4903078;29;20739;-78
2021/01/04 09:23:34;;;;;;;14.43;9.57;;;4.10;99.90;;;-146.47;100.00;66290.13;4888877;29;20211;-78
2021/01/04 09:26:35;;;;;;;16.67;10.27;;;4.10;99.90;;;-146.47;100.00;66290.13;4887984;29;20204;-78
2021/01/04 09:29:28;;;;;;;15.77;9.67;;;4.10;99.90;;;-146.47;100.00;66290.13;4887201;29;20266;-77
2021/01/04 09:32:17;;;;;;;14.27;8.83;;;4.10;99.90;;;-146.47;100.00;66290.13;4885464;29;20213;-78
2021/01/04 09:35:05;;;;;;;12.87;8.37;;;4.10;99.90;;;-146.47;100.00;66290.13;4895771;29;20264;-78
2021/01/04 09:38:01;;;;;;;15.33;9.57;;;4.20;99.90;;;-146.47;100.00;66290.13;4895575;29;20608;-77
2021/01/04 09:40:53;;;;;;;11.90;7.20;;;4.20;99.90;;;-146.47;100.00;66290.13;4893612;29;20289;-77
2021/01/04 09:43:41;;;;;;;13.63;8.10;;;4.30;99.90;;;-146.47;100.00;66290.13;4882400;29;20232;-77
2021/01/04 09:46:46;;;;;;;10.63;7.13;;;4.30;99.90;;;-146.47;100.00;66290.13;4893007;29;20698;-78
2021/01/04 09:49:40;;;;;;;10.73;7.23;;;4.30;99.90;;;-146.47;100.00;66290.13;4893878;29;20285;-77
2021/01/04 09:52:36;;;;;;;11.03;7.90;;;4.30;99.90;;;-146.47;100.00;66290.13;4886061;29;20292;-77
2021/01/04 09:55:30;;;;;;;11.53;7.30;;;4.30;99.90;;;-146.47;100.00;66290.13;4882047;29;20608;-77
2021/01/04 09:58:20;;;;;;;11.20;7.67;;;4.30;99.90;;;-146.47;100.00;66290.13;4881486;29;20229;-77
2021/01/04 10:01:13;;;;;;;9.77;6.80;;;4.30;99.90;;;-146.47;100.00;66290.13;4881665;29;20220;-77
2021/01/04 10:04:00;;;;;;;11.93;7.57;;;4.30;99.90;;;-146.47;100.00;66290.13;4886102;29;20220;-76
2021/01/04 10:06:45;;;;;;;12.00;8.23;;;4.30;99.90;;;-146.47;100.00;66290.13;4889498;29;20804;-77
2021/01/04 10:09:36;;;;;;;14.03;8.80;;;4.40;99.90;;;-146.47;100.00;66290.13;4883410;29;20350;-77
2021/01/04 10:12:27;;;;;;;13.77;9.17;;;4.40;99.90;;;-146.47;100.00;66290.13;4890561;29;20781;-77
2021/01/04 10:15:25;;;;;;;13.83;9.43;;;4.40;99.90;;;-146.47;100.00;66290.13;4891953;29;20257;-78
2021/01/04 10:18:37;;;;;;;13.83;8.73;;;4.40;99.90;;;-146.47;100.00;66290.13;4887492;29;20276;-77
2021/01/04 10:21:26;;;;;;;14.03;8.97;;;4.40;99.90;;;-146.47;100.00;66290.13;4888351;29;20340;-78
2021/01/04 10:24:23;;;;;;;15.83;9.73;;;4.40;99.90;;;-146.47;100.00;66290.13;4888380;29;20213;-76
2021/01/04 10:27:09;;;;;;;17.23;10.30;;;4.40;99.90;;;-146.47;100.00;66290.13;4885342;29;20213;-76
2021/01/04 10:29:57;;;;;;;14.63;9.70;;;4.40;99.90;;;-146.47;100.00;66290.13;4887582;29;20227;-76
2021/01/04 10:32:43;;;;;;;18.63;9.93;;;4.40;99.90;;;-146.47;100.00;66290.13;4890808;29;20220;-78
2021/01/04 10:35:29;;;;;;;15.57;8.17;;;4.50;99.90;;;-146.47;100.00;66290.13;4882014;29;20774;-76
2021/01/04 10:38:22;;;;;;;19.17;10.50;;;4.50;99.90;;;-146.47;100.00;66290.13;4907570;29;20231;-78
2021/01/04 10:41:11;;;;;;;17.73;10.83;;;4.50;99.90;;;-146.47;100.00;66290.13;4900699;29;20751;-78
2021/01/04 10:44:15;;;;;;;17.67;10.43;;;4.50;99.90;;;-146.47;100.00;66290.13;4889717;29;20747;-78
2021/01/04 10:47:18;;;;;;;16.93;10.70;;;4.50;99.90;;;-146.47;100.00;66290.13;4880521;29;20706;-74
2021/01/04 10:50:14;;;;;;;17.33;11.20;;;4.50;99.90;;;-146.47;100.00;66290.13;4886329;29;20212;-75
2021/01/04 10:53:02;;;;;;;19.13;10.50;;;4.50;99.90;;;-146.47;100.00;66290.13;4889427;29;20204;-75
2021/01/04 10:56:02;;;;;;;19.80;12.03;;;4.60;99.90;;;-146.47;100.00;66290.13;4894101;29;20220;-77
2021/01/04 10:59:04;;;;;;;18.40;11.47;;;4.60;99.90;;;-146.47;100.00;66290.13;4893987;29;20314;-74
2021/01/04 11:01:51;;;;;;;18.67;12.57;;;4.60;99.90;;;-146.47;100.00;66290.13;4894492;29;20212;-78
2021/01/04 11:04:38;;;;;;;21.13;11.97;;;4.60;99.90;;;-146.47;100.00;66290.13;4886753;29;20289;-78
2021/01/04 11:07:33;;;;;;;20.37;12.00;;;4.60;99.90;;;-146.47;100.00;66290.13;4889128;29;20235;-74
2021/01/04 11:10:25;;;;;;;19.23;11.67;;;4.60;99.90;;;-146.47;100.00;66290.13;4888963;29;20585;-75
2021/01/04 11:13:10;;;;;;;19.30;12.10;;;4.70;99.90;;;-146.47;100.00;66290.13;4884611;29;20702;-76
2021/01/04 11:16:11;;;;;;;18.07;11.00;;;4.70;99.90;;;-146.47;100.00;66290.13;4887285;29;20216;-76
2021/01/04 11:18:57;;;;;;;16.87;10.27;;;4.70;99.90;;;-146.47;100.00;66290.13;4888223;29;20296;-76
2021/01/04 11:21:44;;;;;;;18.43;11.77;;;4.80;99.90;;;-146.47;100.00;66290.13;4879268;29;20213;-76
2021/01/04 11:24:31;;;;;;;16.50;9.97;;;4.80;99.90;;;-146.47;100.00;66290.13;4883718;29;20301;-76
2021/01/04 11:27:17;;;;;;;17.20;11.00;;;4.80;99.90;;;-146.47;100.00;66290.13;4886790;29;20225;-77
2021/01/04 11:30:03;;;;;;;17.27;10.80;;;4.90;99.90;;;-146.47;100.00;66290.13;4889008;29;20236;-77
2021/01/04 11:32:48;;;;;;;13.80;9.50;;;4.80;99.90;;;-146.47;100.00;66290.13;4881692;29;20260;-76
2021/01/04 11:35:33;;;;;;;15.63;10.03;;;4.90;99.90;;;-146.47;100.00;66290.13;4884138;29;20230;-75
2021/01/04 11:38:18;;;;;;;14.30;9.50;;;4.80;99.90;;;-146.47;100.00;66290.13;4883320;29;20571;-76
2021/01/04 11:41:04;;;;;;;13.80;9.10;;;4.80;99.90;;;-146.47;100.00;66290.13;4889846;29;20243;-75
2021/01/04 11:43:50;;;;;;;13.20;8.20;;;4.80;99.90;;;-146.47;100.00;66290.13;4883929;29;20640;-76
2021/01/04 11:46:35;;;;;;;12.17;7.90;;;4.80;99.90;;;-146.47;100.00;66290.13;4891148;29;20249;-76
2021/01/04 11:49:20;;;;;;;13.17;9.17;;;4.80;99.90;;;-146.47;100.00;66290.13;4892769;29;20243;-76
2021/01/04 11:52:06;;;;;;;17.30;8.23;;;4.80;99.90;;;-146.47;100.00;66290.13;4895265;29;20272;-76
2021/01/04 11:54:50;;;;;;;13.93;9.20;;;4.80;99.90;;;-146.47;100.00;66290.13;4893540;29;20269;-76
2021/01/04 11:57:37;;;;;;;14.63;9.63;;;4.80;99.90;;;-146.47;100.00;66290.13;4880552;29;20298;-76
2021/01/04 12:00:23;;;;;;;12.67;8.40;;;4.80;99.90;;;-146.47;100.00;66290.13;4884399;29;20220;-75
2021/01/04 12:03:09;;;;;;;13.17;8.50;;;4.70;99.90;;;-146.47;100.00;66290.13;4884857;29;20212;-74
2021/01/04 12:05:54;;;;;;;14.37;8.00;;;4.70;99.90;;;-146.47;100.00;66290.13;4883977;29;20239;-75